sensor_id;sensor_type;location;lat;lon;timestamp;pressure;altitude;pressure_sealevel;temperature;humidity
73936;BME280;62287;50.858;0.252;2023-07-30T00:00:14;100855.56;;;19.85;40.29
73936;BME280;62287;50.858;0.252;2023-07-30T00:00:45;100855.04;;;19.87;40.35
73936;BME280;62287;50.858;0.252;2023-07-30T00:01:19;100852.88;;;19.86;40.33
73936;BME280;62287;50.858;0.252;2023-07-30T00:01:50;100851.78;;;19.97;40.28
73936;BME280;62287;50.858;0.252;2023-07-30T00:02:21;100854.88;;;19.55;40.60
73936;BME280;62287;50.858;0.252;2023-07-30T00:02:52;100855.39;;;19.58;40.58
73936;BME280;62287;50.858;0.252;2023-07-30T00:03:23;100854.01;;;19.61;40.48
73936;BME280;62287;50.858;0.252;2023-07-30T00:03:54;100854.14;;;19.10;40.60
73936;BME280;62287;50.858;0.252;2023-07-30T00:04:25;100854.83;;;19.54;40.70
73936;BME280;62287;50.858;0.252;2023-07-30T00:04:56;100856.61;;;19.17;40.80
73936;BME280;62287;50.858;0.252;2023-07-30T00:05:27;100850.03;;;19.31;40.85
73936;BME280;62287;50.858;0.252;2023-07-30T00:05:58;100851.70;;;19.30;40.68
73936;BME280;62287;50.858;0.252;2023-07-30T00:06:29;100853.93;;;19.19;40.73
73936;BME280;62287;50.858;0.252;2023-07-30T00:06:59;100853.52;;;19.71;40.55
73936;BME280;62287;50.858;0.252;2023-07-30T00:07:30;100855.14;;;19.55;40.69
73936;BME280;62287;50.858;0.252;2023-07-30T00:08:01;100852.89;;;19.29;40.54
73936;BME280;62287;50.858;0.252;2023-07-30T00:08:32;100854.03;;;19.64;40.65
73936;BME280;62287;50.858;0.252;2023-07-30T00:09:43;100854.62;;;20.10;40.21
73936;BME280;62287;50.858;0.252;2023-07-30T00:10:14;100854.96;;;19.34;40.47
73936;BME280;62287;50.858;0.252;2023-07-30T00:10:46;100853.92;;;20.32;40.32
73936;BME280;62287;50.858;0.252;2023-07-30T00:11:17;100854.44;;;19.04;40.60
73936;BME280;62287;50.858;0.252;2023-07-30T00:11:49;100854.48;;;19.51;40.21
73936;BME280;62287;50.858;0.252;2023-07-30T00:12:29;100856.18;;;19.45;40.27
73936;BME280;62287;50.858;0.252;2023-07-30T00:13:00;100853.48;;;19.90;40.24
73936;BME280;62287;50.858;0.252;2023-07-30T00:13:31;100856.50;;;19.55;40.29
73936;BME280;62287;50.858;0.252;2023-07-30T00:14:02;100855.83;;;19.73;40.03
73936;BME280;62287;50.858;0.252;2023-07-30T00:14:33;100856.39;;;19.53;40.25
73936;BME280;62287;50.858;0.252;2023-07-30T00:15:07;100855.59;;;19.96;40.12
73936;BME280;62287;50.858;0.252;2023-07-30T00:15:38;100856.94;;;19.52;40.14
73936;BME280;62287;50.858;0.252;2023-07-30T00:16:09;100857.56;;;19.08;40.41
73936;BME280;62287;50.858;0.252;2023-07-30T00:16:40;100857.12;;;19.57;40.52
73936;BME280;62287;50.858;0.252;2023-07-30T00:17:11;100856.52;;;19.82;40.27
73936;BME280;62287;50.858;0.252;2023-07-30T00:17:42;100852.78;;;20.09;40.32
73936;BME280;62287;50.858;0.252;2023-07-30T00:18:14;100849.96;;;18.90;40.51
73936;BME280;62287;50.858;0.252;2023-07-30T00:18:46;100852.71;;;19.57;40.12
73936;BME280;62287;50.858;0.252;2023-07-30T00:19:17;100848.90;;;19.98;39.72
73936;BME280;62287;50.858;0.252;2023-07-30T00:19:48;100847.94;;;19.31;40.14
73936;BME280;62287;50.858;0.252;2023-07-30T00:20:19;100846.66;;;20.01;39.65
73936;BME280;62287;50.858;0.252;2023-07-30T00:20:50;100846.24;;;20.01;39.58
73936;BME280;62287;50.858;0.252;2023-07-30T00:21:22;100847.12;;;20.38;39.29
73936;BME280;62287;50.858;0.252;2023-07-30T00:21:53;100847.86;;;20.40;39.20
73936;BME280;62287;50.858;0.252;2023-07-30T00:22:24;100847.43;;;20.40;39.51
73936;BME280;62287;50.858;0.252;2023-07-30T00:22:56;100843.14;;;19.40;39.86
73936;BME280;62287;50.858;0.252;2023-07-30T00:23:27;100846.08;;;20.00;39.81
73936;BME280;62287;50.858;0.252;2023-07-30T00:23:59;100844.09;;;20.19;39.74
73936;BME280;62287;50.858;0.252;2023-07-30T00:24:30;100846.15;;;20.04;39.83
73936;BME280;62287;50.858;0.252;2023-07-30T00:25:02;100843.50;;;19.58;39.90
73936;BME280;62287;50.858;0.252;2023-07-30T00:25:33;100849.66;;;19.80;40.05
73936;BME280;62287;50.858;0.252;2023-07-30T00:26:04;100846.91;;;19.80;40.05
73936;BME280;62287;50.858;0.252;2023-07-30T00:26:35;100845.98;;;19.91;39.90
73936;BME280;62287;50.858;0.252;2023-07-30T00:27:06;100845.64;;;19.43;40.02
73936;BME280;62287;50.858;0.252;2023-07-30T00:27:37;100843.55;;;19.55;39.97
73936;BME280;62287;50.858;0.252;2023-07-30T00:28:09;100846.48;;;20.24;39.68
73936;BME280;62287;50.858;0.252;2023-07-30T00:28:40;100847.56;;;19.81;39.75
73936;BME280;62287;50.858;0.252;2023-07-30T00:29:12;100846.24;;;20.36;39.55
73936;BME280;62287;50.858;0.252;2023-07-30T00:29:43;100846.53;;;20.11;39.40
73936;BME280;62287;50.858;0.252;2023-07-30T00:30:14;100849.91;;;20.42;39.20
73936;BME280;62287;50.858;0.252;2023-07-30T00:30:46;100849.29;;;21.00;39.31
73936;BME280;62287;50.858;0.252;2023-07-30T00:31:17;100847.21;;;20.35;39.47
73936;BME280;62287;50.858;0.252;2023-07-30T00:31:48;100849.50;;;20.07;39.60
73936;BME280;62287;50.858;0.252;2023-07-30T00:32:18;100849.60;;;19.74;39.87
73936;BME280;62287;50.858;0.252;2023-07-30T00:32:50;100848.09;;;20.57;39.61
73936;BME280;62287;50.858;0.252;2023-07-30T00:33:21;100846.32;;;20.04;39.40
73936;BME280;62287;50.858;0.252;2023-07-30T00:33:52;100848.49;;;19.90;39.60
73936;BME280;62287;50.858;0.252;2023-07-30T00:34:23;100846.24;;;20.20;39.59
73936;BME280;62287;50.858;0.252;2023-07-30T00:34:54;100850.59;;;19.27;40.02
73936;BME280;62287;50.858;0.252;2023-07-30T00:35:25;100848.99;;;19.51;40.03
73936;BME280;62287;50.858;0.252;2023-07-30T00:35:56;100846.49;;;19.68;40.13
73936;BME280;62287;50.858;0.252;2023-07-30T00:36:27;100843.14;;;18.93;40.36
73936;BME280;62287;50.858;0.252;2023-07-30T00:36:58;100846.06;;;19.61;39.89
73936;BME280;62287;50.858;0.252;2023-07-30T00:37:29;100849.52;;;19.79;39.68
73936;BME280;62287;50.858;0.252;2023-07-30T00:38:00;100846.77;;;20.05;39.80
73936;BME280;62287;50.858;0.252;2023-07-30T00:38:31;100849.03;;;20.44;39.75
73936;BME280;62287;50.858;0.252;2023-07-30T00:39:02;100847.56;;;20.11;39.43
73936;BME280;62287;50.858;0.252;2023-07-30T00:39:33;100845.71;;;20.14;39.38
73936;BME280;62287;50.858;0.252;2023-07-30T00:40:05;100848.85;;;19.97;39.53
73936;BME280;62287;50.858;0.252;2023-07-30T00:40:40;100847.95;;;19.98;39.50
73936;BME280;62287;50.858;0.252;2023-07-30T00:41:11;100849.55;;;20.05;39.65
73936;BME280;62287;50.858;0.252;2023-07-30T00:41:41;100849.20;;;19.78;39.68
73936;BME280;62287;50.858;0.252;2023-07-30T00:42:12;100851.55;;;19.92;39.58
73936;BME280;62287;50.858;0.252;2023-07-30T00:42:44;100852.52;;;20.10;39.66
73936;BME280;62287;50.858;0.252;2023-07-30T00:43:15;100853.68;;;20.21;39.55
73936;BME280;62287;50.858;0.252;2023-07-30T00:43:47;100852.70;;;20.52;39.21
73936;BME280;62287;50.858;0.252;2023-07-30T00:44:18;100851.52;;;20.02;39.40
73936;BME280;62287;50.858;0.252;2023-07-30T00:44:49;100857.32;;;19.77;39.46
73936;BME280;62287;50.858;0.252;2023-07-30T00:45:20;100855.12;;;19.05;39.89
73936;BME280;62287;50.858;0.252;2023-07-30T00:45:51;100857.68;;;19.59;39.72
73936;BME280;62287;50.858;0.252;2023-07-30T00:46:22;100854.95;;;19.38;39.92
73936;BME280;62287;50.858;0.252;2023-07-30T00:46:56;100857.05;;;19.44;39.65
73936;BME280;62287;50.858;0.252;2023-07-30T00:47:27;100859.88;;;19.32;39.86
73936;BME280;62287;50.858;0.252;2023-07-30T00:47:58;100860.97;;;19.73;39.58
73936;BME280;62287;50.858;0.252;2023-07-30T00:48:30;100858.29;;;19.74;39.60
73936;BME280;62287;50.858;0.252;2023-07-30T00:49:01;100859.31;;;19.79;39.79
73936;BME280;62287;50.858;0.252;2023-07-30T00:49:32;100855.38;;;19.34;39.96
73936;BME280;62287;50.858;0.252;2023-07-30T00:50:05;100858.62;;;19.61;39.71
73936;BME280;62287;50.858;0.252;2023-07-30T00:50:36;100858.36;;;20.33;39.42
73936;BME280;62287;50.858;0.252;2023-07-30T00:51:09;100858.43;;;20.35;39.13
73936;BME280;62287;50.858;0.252;2023-07-30T00:51:43;100858.59;;;20.45;39.32
73936;BME280;62287;50.858;0.252;2023-07-30T00:52:16;100856.24;;;20.58;39.13
73936;BME280;62287;50.858;0.252;2023-07-30T00:52:49;100859.84;;;19.43;39.66
73936;BME280;62287;50.858;0.252;2023-07-30T00:53:23;100856.12;;;19.42;39.76
73936;BME280;62287;50.858;0.252;2023-07-30T00:53:58;100855.28;;;19.51;39.65
73936;BME280;62287;50.858;0.252;2023-07-30T00:54:30;100855.53;;;20.03;39.62
73936;BME280;62287;50.858;0.252;2023-07-30T00:55:02;100857.48;;;20.08;39.24
73936;BME280;62287;50.858;0.252;2023-07-30T00:55:33;100859.03;;;20.15;39.48
73936;BME280;62287;50.858;0.252;2023-07-30T00:56:04;100859.94;;;19.29;39.80
73936;BME280;62287;50.858;0.252;2023-07-30T00:56:36;100860.03;;;19.73;39.60
73936;BME280;62287;50.858;0.252;2023-07-30T00:57:08;100857.14;;;20.17;39.22
73936;BME280;62287;50.858;0.252;2023-07-30T00:57:41;100861.01;;;19.96;39.56
73936;BME280;62287;50.858;0.252;2023-07-30T00:58:12;100859.46;;;19.90;39.62
73936;BME280;62287;50.858;0.252;2023-07-30T00:58:44;100861.27;;;20.45;39.24
73936;BME280;62287;50.858;0.252;2023-07-30T00:59:19;100859.22;;;20.33;39.25
73936;BME280;62287;50.858;0.252;2023-07-30T00:59:51;100856.88;;;20.23;38.98
73936;BME280;62287;50.858;0.252;2023-07-30T01:00:23;100854.69;;;20.23;39.01
73936;BME280;62287;50.858;0.252;2023-07-30T01:00:55;100855.68;;;20.22;38.94
73936;BME280;62287;50.858;0.252;2023-07-30T01:01:26;100854.99;;;20.52;38.80
73936;BME280;62287;50.858;0.252;2023-07-30T01:01:57;100857.24;;;20.40;38.91
73936;BME280;62287;50.858;0.252;2023-07-30T01:02:29;100857.75;;;20.29;38.79
73936;BME280;62287;50.858;0.252;2023-07-30T01:03:02;100858.39;;;20.39;38.67
73936;BME280;62287;50.858;0.252;2023-07-30T01:03:34;100853.26;;;20.10;38.92
73936;BME280;62287;50.858;0.252;2023-07-30T01:04:07;100854.39;;;20.02;38.90
73936;BME280;62287;50.858;0.252;2023-07-30T01:04:39;100857.36;;;20.53;38.55
73936;BME280;62287;50.858;0.252;2023-07-30T01:05:11;100851.14;;;20.10;38.78
73936;BME280;62287;50.858;0.252;2023-07-30T01:05:42;100853.99;;;20.09;38.76
73936;BME280;62287;50.858;0.252;2023-07-30T01:06:13;100852.54;;;20.13;38.86
73936;BME280;62287;50.858;0.252;2023-07-30T01:06:44;100855.71;;;19.92;38.95
73936;BME280;62287;50.858;0.252;2023-07-30T01:07:15;100850.30;;;20.51;38.75
73936;BME280;62287;50.858;0.252;2023-07-30T01:07:46;100852.83;;;19.91;38.94
73936;BME280;62287;50.858;0.252;2023-07-30T01:08:18;100849.48;;;20.06;38.84
73936;BME280;62287;50.858;0.252;2023-07-30T01:08:48;100846.18;;;19.76;39.25
73936;BME280;62287;50.858;0.252;2023-07-30T01:09:20;100848.85;;;20.48;38.83
73936;BME280;62287;50.858;0.252;2023-07-30T01:09:51;100848.38;;;19.59;39.26
73936;BME280;62287;50.858;0.252;2023-07-30T01:10:23;100848.11;;;19.87;39.16
73936;BME280;62287;50.858;0.252;2023-07-30T01:10:54;100846.77;;;20.51;38.95
73936;BME280;62287;50.858;0.252;2023-07-30T01:11:26;100846.07;;;21.07;38.71
73936;BME280;62287;50.858;0.252;2023-07-30T01:11:58;100845.59;;;20.83;38.59
73936;BME280;62287;50.858;0.252;2023-07-30T01:12:31;100845.30;;;19.90;38.88
73936;BME280;62287;50.858;0.252;2023-07-30T01:13:04;100846.33;;;20.07;39.20
73936;BME280;62287;50.858;0.252;2023-07-30T01:13:38;100852.08;;;20.58;38.88
73936;BME280;62287;50.858;0.252;2023-07-30T01:14:10;100847.51;;;19.76;39.29
73936;BME280;62287;50.858;0.252;2023-07-30T01:14:41;100847.35;;;19.55;39.24
73936;BME280;62287;50.858;0.252;2023-07-30T01:15:13;100848.75;;;20.28;39.20
73936;BME280;62287;50.858;0.252;2023-07-30T01:15:45;100849.61;;;20.44;39.05
73936;BME280;62287;50.858;0.252;2023-07-30T01:16:18;100850.49;;;19.89;39.22
73936;BME280;62287;50.858;0.252;2023-07-30T01:16:49;100850.14;;;20.26;38.87
73936;BME280;62287;50.858;0.252;2023-07-30T01:17:22;100847.51;;;20.32;38.88
73936;BME280;62287;50.858;0.252;2023-07-30T01:17:53;100849.92;;;20.82;38.76
73936;BME280;62287;50.858;0.252;2023-07-30T01:18:24;100852.33;;;20.53;38.99
73936;BME280;62287;50.858;0.252;2023-07-30T01:19:00;100848.39;;;20.46;38.89
73936;BME280;62287;50.858;0.252;2023-07-30T01:19:31;100847.80;;;20.54;38.79
73936;BME280;62287;50.858;0.252;2023-07-30T01:20:05;100847.01;;;19.83;39.10
73936;BME280;62287;50.858;0.252;2023-07-30T01:20:38;100848.60;;;19.84;39.16
73936;BME280;62287;50.858;0.252;2023-07-30T01:21:09;100846.55;;;19.40;39.24
73936;BME280;62287;50.858;0.252;2023-07-30T01:21:40;100850.40;;;20.06;39.05
73936;BME280;62287;50.858;0.252;2023-07-30T01:22:11;100847.85;;;20.74;38.75
73936;BME280;62287;50.858;0.252;2023-07-30T01:22:42;100846.13;;;20.69;38.82
73936;BME280;62287;50.858;0.252;2023-07-30T01:23:14;100839.02;;;20.47;38.88
73936;BME280;62287;50.858;0.252;2023-07-30T01:23:44;100844.25;;;20.29;39.03
73936;BME280;62287;50.858;0.252;2023-07-30T01:24:16;100847.06;;;20.14;38.86
73936;BME280;62287;50.858;0.252;2023-07-30T01:24:52;100848.63;;;20.80;38.73
73936;BME280;62287;50.858;0.252;2023-07-30T01:25:24;100844.84;;;20.09;38.62
73936;BME280;62287;50.858;0.252;2023-07-30T01:26:01;100844.45;;;19.57;39.25
73936;BME280;62287;50.858;0.252;2023-07-30T01:26:40;100847.96;;;19.67;39.28
73936;BME280;62287;50.858;0.252;2023-07-30T01:27:21;100844.54;;;19.93;39.48
73936;BME280;62287;50.858;0.252;2023-07-30T01:27:57;100848.17;;;19.84;39.23
73936;BME280;62287;50.858;0.252;2023-07-30T01:28:36;100848.07;;;19.57;39.47
73936;BME280;62287;50.858;0.252;2023-07-30T01:29:13;100847.61;;;19.84;39.26
73936;BME280;62287;50.858;0.252;2023-07-30T01:29:51;100846.15;;;20.59;38.94
73936;BME280;62287;50.858;0.252;2023-07-30T01:30:25;100845.68;;;20.21;39.04
73936;BME280;62287;50.858;0.252;2023-07-30T01:30:59;100845.78;;;20.85;39.01
73936;BME280;62287;50.858;0.252;2023-07-30T01:31:33;100848.20;;;20.46;39.01
73936;BME280;62287;50.858;0.252;2023-07-30T01:32:07;100846.20;;;18.93;39.19
73936;BME280;62287;50.858;0.252;2023-07-30T01:32:40;100846.20;;;19.05;39.64
73936;BME280;62287;50.858;0.252;2023-07-30T01:33:13;100846.86;;;19.81;39.57
73936;BME280;62287;50.858;0.252;2023-07-30T01:33:47;100848.15;;;20.11;39.26
73936;BME280;62287;50.858;0.252;2023-07-30T01:34:20;100843.70;;;20.09;39.00
73936;BME280;62287;50.858;0.252;2023-07-30T01:34:53;100847.36;;;20.12;38.93
73936;BME280;62287;50.858;0.252;2023-07-30T01:35:26;100846.41;;;20.21;39.19
73936;BME280;62287;50.858;0.252;2023-07-30T01:35:58;100846.85;;;19.94;39.18
73936;BME280;62287;50.858;0.252;2023-07-30T01:36:33;100848.05;;;20.47;39.00
73936;BME280;62287;50.858;0.252;2023-07-30T01:37:07;100847.38;;;20.17;39.09
73936;BME280;62287;50.858;0.252;2023-07-30T01:37:41;100850.30;;;19.55;39.36
73936;BME280;62287;50.858;0.252;2023-07-30T01:38:14;100852.76;;;19.86;38.90
73936;BME280;62287;50.858;0.252;2023-07-30T01:38:45;100850.14;;;20.03;39.17
73936;BME280;62287;50.858;0.252;2023-07-30T01:39:18;100849.25;;;19.58;39.36
73936;BME280;62287;50.858;0.252;2023-07-30T01:39:51;100849.20;;;20.70;39.06
73936;BME280;62287;50.858;0.252;2023-07-30T01:40:22;100849.53;;;19.79;39.16
73936;BME280;62287;50.858;0.252;2023-07-30T01:40:53;100855.43;;;20.04;38.97
73936;BME280;62287;50.858;0.252;2023-07-30T01:41:25;100849.27;;;20.44;38.88
73936;BME280;62287;50.858;0.252;2023-07-30T01:42:00;100848.49;;;20.91;38.82
73936;BME280;62287;50.858;0.252;2023-07-30T01:42:31;100848.37;;;20.11;38.73
73936;BME280;62287;50.858;0.252;2023-07-30T01:43:01;100847.34;;;20.37;38.92
73936;BME280;62287;50.858;0.252;2023-07-30T01:43:33;100849.01;;;20.03;39.14
73936;BME280;62287;50.858;0.252;2023-07-30T01:44:04;100849.38;;;20.18;39.23
73936;BME280;62287;50.858;0.252;2023-07-30T01:44:35;100846.25;;;20.47;39.23
73936;BME280;62287;50.858;0.252;2023-07-30T01:45:07;100843.31;;;20.33;39.01
73936;BME280;62287;50.858;0.252;2023-07-30T01:45:38;100842.20;;;20.04;38.95
73936;BME280;62287;50.858;0.252;2023-07-30T01:46:10;100843.36;;;20.47;38.97
73936;BME280;62287;50.858;0.252;2023-07-30T01:46:41;100841.50;;;20.71;38.81
73936;BME280;62287;50.858;0.252;2023-07-30T01:47:12;100845.11;;;20.29;39.08
73936;BME280;62287;50.858;0.252;2023-07-30T01:47:44;100844.04;;;19.92;39.16
73936;BME280;62287;50.858;0.252;2023-07-30T01:48:15;100842.33;;;20.05;39.16
73936;BME280;62287;50.858;0.252;2023-07-30T01:48:46;100842.12;;;19.08;39.56
73936;BME280;62287;50.858;0.252;2023-07-30T01:49:17;100840.90;;;20.07;39.59
73936;BME280;62287;50.858;0.252;2023-07-30T01:49:48;100842.37;;;19.74;39.63
73936;BME280;62287;50.858;0.252;2023-07-30T01:50:19;100841.06;;;20.11;39.70
73936;BME280;62287;50.858;0.252;2023-07-30T01:50:50;100843.52;;;19.54;39.56
73936;BME280;62287;50.858;0.252;2023-07-30T01:51:21;100845.38;;;19.66;39.79
73936;BME280;62287;50.858;0.252;2023-07-30T01:51:52;100841.41;;;18.44;39.96
73936;BME280;62287;50.858;0.252;2023-07-30T01:52:23;100843.74;;;18.90;40.38
73936;BME280;62287;50.858;0.252;2023-07-30T01:52:54;100843.33;;;19.76;39.81
73936;BME280;62287;50.858;0.252;2023-07-30T01:53:25;100844.07;;;19.36;39.70
73936;BME280;62287;50.858;0.252;2023-07-30T01:53:56;100844.16;;;19.51;39.92
73936;BME280;62287;50.858;0.252;2023-07-30T01:54:28;100844.22;;;19.66;39.67
73936;BME280;62287;50.858;0.252;2023-07-30T01:54:59;100850.99;;;20.03;39.38
73936;BME280;62287;50.858;0.252;2023-07-30T01:55:30;100846.62;;;19.05;39.88
73936;BME280;62287;50.858;0.252;2023-07-30T01:56:01;100846.80;;;19.52;39.60
73936;BME280;62287;50.858;0.252;2023-07-30T01:56:32;100842.89;;;19.70;39.62
73936;BME280;62287;50.858;0.252;2023-07-30T01:57:03;100845.41;;;19.77;39.61
73936;BME280;62287;50.858;0.252;2023-07-30T01:57:34;100846.36;;;19.51;39.88
73936;BME280;62287;50.858;0.252;2023-07-30T01:58:05;100844.65;;;19.92;39.54
73936;BME280;62287;50.858;0.252;2023-07-30T01:58:36;100843.34;;;19.06;39.71
73936;BME280;62287;50.858;0.252;2023-07-30T01:59:07;100844.52;;;18.53;39.84
73936;BME280;62287;50.858;0.252;2023-07-30T01:59:38;100842.12;;;19.08;40.23
73936;BME280;62287;50.858;0.252;2023-07-30T02:00:12;100844.37;;;19.84;39.83
73936;BME280;62287;50.858;0.252;2023-07-30T02:00:44;100844.34;;;19.96;39.88
73936;BME280;62287;50.858;0.252;2023-07-30T02:01:17;100846.04;;;19.71;39.55
73936;BME280;62287;50.858;0.252;2023-07-30T02:01:48;100844.54;;;20.49;39.39
73936;BME280;62287;50.858;0.252;2023-07-30T02:02:20;100846.10;;;19.98;39.59
73936;BME280;62287;50.858;0.252;2023-07-30T02:02:51;100849.48;;;19.78;39.64
73936;BME280;62287;50.858;0.252;2023-07-30T02:03:22;100850.86;;;19.90;39.18
73936;BME280;62287;50.858;0.252;2023-07-30T02:03:53;100845.47;;;20.13;39.13
73936;BME280;62287;50.858;0.252;2023-07-30T02:04:24;100845.82;;;20.87;39.05
73936;BME280;62287;50.858;0.252;2023-07-30T02:04:55;100845.95;;;20.26;39.13
73936;BME280;62287;50.858;0.252;2023-07-30T02:05:26;100849.23;;;20.58;38.95
73936;BME280;62287;50.858;0.252;2023-07-30T02:05:57;100846.44;;;20.10;39.01
73936;BME280;62287;50.858;0.252;2023-07-30T02:06:28;100851.78;;;20.21;39.20
73936;BME280;62287;50.858;0.252;2023-07-30T02:07:00;100845.88;;;19.72;39.32
73936;BME280;62287;50.858;0.252;2023-07-30T02:07:31;100849.04;;;19.85;39.42
73936;BME280;62287;50.858;0.252;2023-07-30T02:08:02;100848.01;;;19.17;39.80
73936;BME280;62287;50.858;0.252;2023-07-30T02:08:34;100848.49;;;19.16;39.95
73936;BME280;62287;50.858;0.252;2023-07-30T02:09:05;100847.01;;;18.97;39.96
73936;BME280;62287;50.858;0.252;2023-07-30T02:09:37;100848.95;;;19.25;40.13
73936;BME280;62287;50.858;0.252;2023-07-30T02:10:08;100852.37;;;19.70;39.80
73936;BME280;62287;50.858;0.252;2023-07-30T02:10:39;100848.76;;;19.68;39.76
73936;BME280;62287;50.858;0.252;2023-07-30T02:11:10;100851.72;;;19.19;39.70
73936;BME280;62287;50.858;0.252;2023-07-30T02:11:42;100851.70;;;19.45;39.95
73936;BME280;62287;50.858;0.252;2023-07-30T02:12:13;100852.60;;;19.03;40.01
73936;BME280;62287;50.858;0.252;2023-07-30T02:12:44;100854.41;;;20.05;39.47
73936;BME280;62287;50.858;0.252;2023-07-30T02:13:15;100854.13;;;20.03;39.14
73936;BME280;62287;50.858;0.252;2023-07-30T02:13:46;100855.19;;;19.86;39.20
73936;BME280;62287;50.858;0.252;2023-07-30T02:14:18;100853.34;;;20.49;38.94
73936;BME280;62287;50.858;0.252;2023-07-30T02:14:49;100855.22;;;20.25;39.13
73936;BME280;62287;50.858;0.252;2023-07-30T02:15:20;100856.75;;;20.53;38.95
73936;BME280;62287;50.858;0.252;2023-07-30T02:15:51;100854.13;;;20.02;38.95
73936;BME280;62287;50.858;0.252;2023-07-30T02:16:22;100852.78;;;20.39;39.32
73936;BME280;62287;50.858;0.252;2023-07-30T02:16:53;100850.35;;;19.39;39.45
73936;BME280;62287;50.858;0.252;2023-07-30T02:17:24;100850.19;;;19.81;39.41
73936;BME280;62287;50.858;0.252;2023-07-30T02:17:56;100849.56;;;19.59;39.61
73936;BME280;62287;50.858;0.252;2023-07-30T02:18:27;100848.15;;;19.71;39.48
73936;BME280;62287;50.858;0.252;2023-07-30T02:18:58;100848.17;;;19.61;39.30
73936;BME280;62287;50.858;0.252;2023-07-30T02:19:29;100847.03;;;19.14;39.17
73936;BME280;62287;50.858;0.252;2023-07-30T02:20:00;100848.17;;;19.20;39.62
73936;BME280;62287;50.858;0.252;2023-07-30T02:20:31;100847.14;;;19.59;39.45
73936;BME280;62287;50.858;0.252;2023-07-30T02:21:02;100853.33;;;19.66;39.25
73936;BME280;62287;50.858;0.252;2023-07-30T02:21:35;100847.06;;;20.33;39.04
73936;BME280;62287;50.858;0.252;2023-07-30T02:22:08;100844.59;;;20.13;39.02
73936;BME280;62287;50.858;0.252;2023-07-30T02:22:40;100846.00;;;19.96;39.17
73936;BME280;62287;50.858;0.252;2023-07-30T02:23:14;100845.10;;;20.25;39.19
73936;BME280;62287;50.858;0.252;2023-07-30T02:23:46;100842.63;;;20.54;38.97
73936;BME280;62287;50.858;0.252;2023-07-30T02:24:20;100844.96;;;20.31;39.11
73936;BME280;62287;50.858;0.252;2023-07-30T02:24:51;100845.64;;;20.61;38.83
73936;BME280;62287;50.858;0.252;2023-07-30T02:25:22;100844.79;;;21.12;38.74
73936;BME280;62287;50.858;0.252;2023-07-30T02:25:53;100844.59;;;20.67;38.72
73936;BME280;62287;50.858;0.252;2023-07-30T02:26:26;100846.64;;;20.75;38.60
73936;BME280;62287;50.858;0.252;2023-07-30T02:26:57;100846.77;;;20.27;38.79
73936;BME280;62287;50.858;0.252;2023-07-30T02:27:29;100845.79;;;20.52;38.90
73936;BME280;62287;50.858;0.252;2023-07-30T02:28:00;100843.22;;;21.04;38.64
73936;BME280;62287;50.858;0.252;2023-07-30T02:28:33;100847.02;;;20.45;38.65
73936;BME280;62287;50.858;0.252;2023-07-30T02:29:04;100843.36;;;20.89;38.56
73936;BME280;62287;50.858;0.252;2023-07-30T02:29:35;100840.74;;;20.87;38.51
73936;BME280;62287;50.858;0.252;2023-07-30T02:30:07;100843.73;;;20.67;38.73
73936;BME280;62287;50.858;0.252;2023-07-30T02:30:38;100843.23;;;20.64;38.75
73936;BME280;62287;50.858;0.252;2023-07-30T02:31:12;100844.53;;;20.97;38.73
73936;BME280;62287;50.858;0.252;2023-07-30T02:31:43;100848.02;;;21.00;38.46
73936;BME280;62287;50.858;0.252;2023-07-30T02:32:15;100845.43;;;21.03;38.34
73936;BME280;62287;50.858;0.252;2023-07-30T02:32:47;100847.80;;;20.93;38.37
73936;BME280;62287;50.858;0.252;2023-07-30T02:33:18;100843.64;;;20.78;38.45
73936;BME280;62287;50.858;0.252;2023-07-30T02:33:49;100842.88;;;20.60;38.63
73936;BME280;62287;50.858;0.252;2023-07-30T02:34:20;100842.79;;;20.87;38.74
73936;BME280;62287;50.858;0.252;2023-07-30T02:34:56;100844.55;;;21.09;38.49
73936;BME280;62287;50.858;0.252;2023-07-30T02:35:27;100844.87;;;20.07;38.72
73936;BME280;62287;50.858;0.252;2023-07-30T02:35:58;100845.33;;;19.81;38.81
73936;BME280;62287;50.858;0.252;2023-07-30T02:36:29;100848.25;;;20.28;38.89
73936;BME280;62287;50.858;0.252;2023-07-30T02:37:00;100843.95;;;20.11;38.71
73936;BME280;62287;50.858;0.252;2023-07-30T02:37:31;100848.38;;;20.81;38.51
73936;BME280;62287;50.858;0.252;2023-07-30T02:38:02;100845.05;;;20.59;38.71
73936;BME280;62287;50.858;0.252;2023-07-30T02:38:33;100843.69;;;20.04;38.72
73936;BME280;62287;50.858;0.252;2023-07-30T02:39:05;100847.06;;;20.18;38.68
73936;BME280;62287;50.858;0.252;2023-07-30T02:39:37;100849.74;;;19.68;39.03
73936;BME280;62287;50.858;0.252;2023-07-30T02:40:11;100850.73;;;20.11;38.78
73936;BME280;62287;50.858;0.252;2023-07-30T02:42:07;100858.93;;;20.71;38.20
73936;BME280;62287;50.858;0.252;2023-07-30T02:42:44;100858.05;;;20.72;38.16
73936;BME280;62287;50.858;0.252;2023-07-30T02:43:15;100856.18;;;20.87;38.22
73936;BME280;62287;50.858;0.252;2023-07-30T02:43:46;100856.39;;;19.79;38.83
73936;BME280;62287;50.858;0.252;2023-07-30T02:44:18;100853.54;;;20.23;38.80
73936;BME280;62287;50.858;0.252;2023-07-30T02:44:49;100851.68;;;20.11;38.94
73936;BME280;62287;50.858;0.252;2023-07-30T02:45:20;100852.12;;;19.78;38.90
73936;BME280;62287;50.858;0.252;2023-07-30T02:45:51;100851.35;;;19.63;39.11
73936;BME280;62287;50.858;0.252;2023-07-30T02:46:22;100847.57;;;19.66;39.08
73936;BME280;62287;50.858;0.252;2023-07-30T02:46:53;100848.34;;;20.11;39.00
73936;BME280;62287;50.858;0.252;2023-07-30T02:47:24;100841.62;;;20.17;38.60
73936;BME280;62287;50.858;0.252;2023-07-30T02:47:56;100843.91;;;20.48;38.42
73936;BME280;62287;50.858;0.252;2023-07-30T02:48:28;100840.86;;;19.95;38.63